Winnebago Heights, Iowa
Current Conditions -  °F | °C
As of 2:53 AM on Tuesday 21 Oct 2014 (Local Time) from KMCW Reporting Station
Clear Clear  
Wind Chill:   Ceiling: Unl
Heat Index:   Visibility: 10mi
Dew Point:   Wind: 3mph
Humidity: 97%   Direction: 20°NNE
Pressure: 30.12"   Gusts: NA
Location:  43.1451°N, 93.1385°W
Report Text: KMCW 210753Z AUTO 02003KT 10SM CLR 02/02 A3012 RMK AO2 SLP196 T00220017
Loading
Personal Weather Stations






























Interactive Weather Map
Tropical Storm Tracking
New forecast layout! Learn more

10-Day Weather Forecast

Advertisements
Track Severe Weather on mobile